This is the latest recevied weather packets stored in our database for station/object KE5YIM-13. If no packets are shown the sender has not sent any weather packets the latest 1 day(s).
| Time | Temp. | Humidity | Pressure | Rain* | Wind** | Luminosity | Snow |
|---|---|---|---|---|---|---|---|
| 1778020361 | 20° C | 63% | 1010.2 hPa | 0 mm | 1.79 m/s, 185° | 73 W/m² | - |
| 1778020057 | 20° C | 63% | 1010.1 hPa | 0 mm | 1.34 m/s, 275° | 112 W/m² | - |
| 1778019753 | 20° C | 63% | 1010.2 hPa | 0 mm | 1.34 m/s, 248° | 130 W/m² | - |
| 1778019451 | 20° C | 64% | 1010 hPa | 0 mm | 0.89 m/s, 180° | 140 W/m² | - |
| 1778019147 | 20° C | 63% | 1010.1 hPa | 0 mm | 3.13 m/s, 279° | 149 W/m² | - |
| 1778018844 | 20.56° C | 62% | 1010.1 hPa | 0 mm | 2.24 m/s, 209° | 173 W/m² | - |
| 1778018542 | 20.56° C | 62% | 1009.9 hPa | 0 mm | 1.79 m/s, 217° | 131 W/m² | - |
| 1778018240 | 20.56° C | 63% | 1010 hPa | 0 mm | 1.34 m/s, 157° | 195 W/m² | - |
| 1778017937 | 20.56° C | 63% | 1009.8 hPa | 0 mm | 4.02 m/s, 271° | 196 W/m² | - |
| 1778017634 | 20.56° C | 63% | 1009.8 hPa | 0 mm | 1.79 m/s, 223° | 224 W/m² | - |
| 1778017332 | 20.56° C | 63% | 1009.9 hPa | 0 mm | 0.45 m/s, 88° | 235 W/m² | - |
| 1778017029 | 20° C | 64% | 1010 hPa | 0 mm | 1.34 m/s, 111° | 207 W/m² | - |
| 1778016726 | 20.56° C | 64% | 1009.9 hPa | 0 mm | 2.24 m/s, 255° | 241 W/m² | - |
| 1778016422 | 20.56° C | 64% | 1010 hPa | 0 mm | 1.34 m/s, 163° | 279 W/m² | - |
| 1778016119 | 20.56° C | 63% | 1009.8 hPa | 0 mm | 3.13 m/s, 197° | 301 W/m² | - |
| 1778015816 | 20.56° C | 63% | 1009.7 hPa | 0 mm | 1.79 m/s, 122° | 319 W/m² | - |
| 1778015514 | 20.56° C | 62% | 1009.8 hPa | 0 mm | 2.24 m/s, 193° | 341 W/m² | - |
| 1778015210 | 21.11° C | 62% | 1009.8 hPa | 0 mm | 3.13 m/s, 146° | 351 W/m² | - |
| 1778014907 | 20.56° C | 62% | 1009.9 hPa | 0 mm | 1.34 m/s, 112° | 346 W/m² | - |
| 1778014604 | 20.56° C | 63% | 1009.8 hPa | 0 mm | 2.24 m/s, 147° | 296 W/m² | - |
| 1778014302 | 20.56° C | 63% | 1010 hPa | 0 mm | 2.24 m/s, 157° | 338 W/m² | - |
| 1778014003 | 21.11° C | 61% | 1009.8 hPa | 0 mm | 3.58 m/s, 170° | 275 W/m² | - |
| 1778013697 | 21.67° C | 62% | 1009.8 hPa | 0 mm | 2.24 m/s, 245° | 361 W/m² | - |
| 1778013393 | 21.11° C | 62% | 1009.6 hPa | 0 mm | 2.24 m/s, 255° | 388 W/m² | - |
| 1778013091 | 21.11° C | 62% | 1009.9 hPa | 0 mm | 1.79 m/s, 141° | 432 W/m² | - |
* Rain latest hour (hover to see other rain measurements)
** Current wind speed in m/s (hover to see current wind gust speed)